createdAt,value
2019-03-03T00:00:33.457Z,75.50
2019-03-03T00:02:59.867Z,75.90
2019-03-03T00:05:26.529Z,75.50
2019-03-03T00:07:52.967Z,75.60
2019-03-03T00:10:19.805Z,75.60
2019-03-03T00:12:46.137Z,75.40
2019-03-03T00:15:12.567Z,75.00
2019-03-03T00:17:40.446Z,74.90
2019-03-03T00:20:12.261Z,75.00
2019-03-03T00:22:38.798Z,74.30
2019-03-03T00:25:07.868Z,74.00
2019-03-03T00:27:34.351Z,73.90
2019-03-03T00:30:01.114Z,73.40
2019-03-03T00:32:27.850Z,73.20
2019-03-03T00:34:54.703Z,73.10
2019-03-03T00:37:25.645Z,73.40
2019-03-03T00:39:56.603Z,73.10
2019-03-03T00:42:24.819Z,72.90
2019-03-03T00:45:09.978Z,72.30
2019-03-03T00:47:44.241Z,72.40
2019-03-03T00:50:15.809Z,72.40
2019-03-03T00:52:47.046Z,72.30
2019-03-03T00:55:24.461Z,72.60
2019-03-03T00:57:59.172Z,72.60
2019-03-03T01:00:36.662Z,73.10
2019-03-03T01:03:04.885Z,72.80
2019-03-03T01:05:35.773Z,72.80
2019-03-03T01:08:20.921Z,72.90
2019-03-03T01:11:05.936Z,72.90
2019-03-03T01:13:49.459Z,73.20
2019-03-03T01:16:18.044Z,73.00
2019-03-03T01:18:46.258Z,73.20
2019-03-03T01:21:20.633Z,72.80
2019-03-03T01:23:48.854Z,72.90
2019-03-03T01:26:15.299Z,72.70
2019-03-03T01:28:42.085Z,72.40
2019-03-03T01:31:08.526Z,73.40
2019-03-03T01:33:35.257Z,72.20
2019-03-03T01:36:01.700Z,72.20
2019-03-03T01:38:28.099Z,72.00
2019-03-03T01:40:54.764Z,72.20
2019-03-03T01:43:21.232Z,72.10
2019-03-03T01:45:47.946Z,72.20
2019-03-03T01:48:14.410Z,71.90
2019-03-03T01:50:41.121Z,71.80
2019-03-03T01:53:09.610Z,71.80
2019-03-03T01:55:36.679Z,71.80
2019-03-03T01:58:03.008Z,71.70
2019-03-03T02:00:29.728Z,71.70
2019-03-03T02:02:57.235Z,71.70
2019-03-03T02:05:24.024Z,71.60
2019-03-03T02:07:50.419Z,71.60
2019-03-03T02:10:20.459Z,71.60
2019-03-03T02:12:46.762Z,70.90
2019-03-03T02:15:13.665Z,70.00
2019-03-03T02:17:40.101Z,70.20
2019-03-03T02:20:08.974Z,70.60
2019-03-03T02:22:35.714Z,70.60
2019-03-03T02:25:05.322Z,70.50
2019-03-03T02:27:32.166Z,70.40
2019-03-03T02:29:58.914Z,70.50
2019-03-03T02:32:25.651Z,70.60
2019-03-03T02:34:51.964Z,70.90
2019-03-03T02:37:18.731Z,70.70
2019-03-03T02:39:45.572Z,70.80
2019-03-03T02:42:12.409Z,71.00
2019-03-03T02:44:39.354Z,71.00
2019-03-03T02:47:05.798Z,70.70
2019-03-03T02:49:32.437Z,71.00
2019-03-03T02:51:58.943Z,70.70
2019-03-03T02:54:25.243Z,70.90
2019-03-03T02:56:52.254Z,70.40
2019-03-03T02:59:19.095Z,70.90
2019-03-03T03:01:47.320Z,70.60
2019-03-03T03:04:13.747Z,70.80
2019-03-03T03:06:54.270Z,69.80
2019-03-03T03:09:22.951Z,69.30
2019-03-03T03:11:59.977Z,69.50
2019-03-03T03:14:33.976Z,69.90
2019-03-03T03:17:19.018Z,69.60
2019-03-03T03:19:47.384Z,69.30
2019-03-03T03:22:32.776Z,69.40
2019-03-03T03:25:04.232Z,69.60
2019-03-03T03:27:50.508Z,69.80
2019-03-03T03:30:19.112Z,69.80
2019-03-03T03:32:50.276Z,70.00
2019-03-03T03:35:24.573Z,70.00
2019-03-03T03:37:52.818Z,70.20
2019-03-03T03:40:29.951Z,70.40
2019-03-03T03:43:04.456Z,70.60
2019-03-03T03:45:50.530Z,71.00
2019-03-03T03:48:24.590Z,71.00
2019-03-03T03:50:53.147Z,71.40
2019-03-03T03:53:21.355Z,72.40
2019-03-03T03:56:07.965Z,71.70
2019-03-03T03:58:53.023Z,71.50
2019-03-03T04:01:27.289Z,72.20
2019-03-03T04:03:55.492Z,72.50
2019-03-03T04:06:33.296Z,73.00
2019-03-03T04:09:04.329Z,73.10
2019-03-03T04:11:35.275Z,73.10
2019-03-03T04:14:06.518Z,72.80
2019-03-03T04:16:51.796Z,73.20
2019-03-03T04:19:19.997Z,73.60
2019-03-03T04:22:05.550Z,73.90
2019-03-03T04:24:39.744Z,74.80
2019-03-03T04:27:11.018Z,74.60
2019-03-03T04:29:39.258Z,74.70
2019-03-03T04:32:16.996Z,74.80
2019-03-03T04:34:47.929Z,74.70
2019-03-03T04:37:21.958Z,75.00
2019-03-03T04:39:50.530Z,75.10
2019-03-03T04:42:24.602Z,75.20
2019-03-03T04:44:55.542Z,75.10
2019-03-03T04:47:40.357Z,75.70
2019-03-03T04:50:14.764Z,75.80
2019-03-03T04:52:59.739Z,76.00
2019-03-03T04:55:37.039Z,76.30
2019-03-03T04:58:22.303Z,76.80
2019-03-03T05:00:50.501Z,77.80
2019-03-03T05:03:33.718Z,77.20
2019-03-03T05:06:08.330Z,77.40
2019-03-03T05:08:36.911Z,77.50
2019-03-03T05:11:10.876Z,77.60
2019-03-03T05:13:48.226Z,77.70
2019-03-03T05:16:19.453Z,77.80
2019-03-03T05:18:51.181Z,77.90
2019-03-03T05:21:17.482Z,78.00
2019-03-03T05:23:43.890Z,78.20
2019-03-03T05:26:10.618Z,78.50
2019-03-03T05:28:37.260Z,78.50
2019-03-03T05:31:03.808Z,78.80
2019-03-03T05:33:30.209Z,79.10
2019-03-03T05:35:56.629Z,79.30
2019-03-03T05:38:23.065Z,79.80
2019-03-03T05:40:49.362Z,80.20
2019-03-03T05:43:21.911Z,80.50
2019-03-03T05:45:48.552Z,80.70
2019-03-03T05:48:15.394Z,81.10
2019-03-03T05:50:41.804Z,81.20
2019-03-03T05:53:08.559Z,81.30
2019-03-03T05:55:35.216Z,81.50
2019-03-03T05:58:01.950Z,81.40
2019-03-03T06:00:28.681Z,81.30
2019-03-03T06:02:55.536Z,81.50
2019-03-03T06:05:22.272Z,81.50
2019-03-03T06:07:48.907Z,81.40
2019-03-03T06:10:15.652Z,81.30
2019-03-03T06:12:42.044Z,81.50
2019-03-03T06:15:12.743Z,81.70
2019-03-03T06:17:39.163Z,81.70
2019-03-03T06:20:08.760Z,81.80
2019-03-03T06:22:35.199Z,82.20
2019-03-03T06:25:01.934Z,82.00
2019-03-03T06:27:28.379Z,82.00
2019-03-03T06:29:54.803Z,82.00
2019-03-03T06:32:21.433Z,81.80
2019-03-03T06:34:48.072Z,81.70
2019-03-03T06:37:14.718Z,81.80
2019-03-03T06:39:41.122Z,82.00
2019-03-03T06:42:07.986Z,82.10
2019-03-03T06:44:34.735Z,81.80
2019-03-03T06:47:01.478Z,81.70
2019-03-03T06:49:28.218Z,81.40
2019-03-03T06:51:54.623Z,81.30
2019-03-03T06:54:20.913Z,81.30
2019-03-03T06:56:47.724Z,81.20
2019-03-03T06:59:14.466Z,81.30
2019-03-03T07:01:41.206Z,81.00
2019-03-03T07:04:07.945Z,81.10
2019-03-03T07:06:34.351Z,81.20
2019-03-03T07:09:00.690Z,81.50
2019-03-03T07:11:27.349Z,81.80
2019-03-03T07:13:53.653Z,81.70
2019-03-03T07:16:20.149Z,82.10
2019-03-03T07:18:46.410Z,82.00
2019-03-03T07:21:13.186Z,82.00
2019-03-03T07:23:40.042Z,82.00
2019-03-03T07:26:07.466Z,81.80
2019-03-03T07:28:33.989Z,81.80
2019-03-03T07:31:00.534Z,81.70
2019-03-03T07:33:29.241Z,81.60
2019-03-03T07:35:55.990Z,80.90
2019-03-03T07:38:22.451Z,79.90
2019-03-03T07:40:48.867Z,79.70
2019-03-03T07:43:15.305Z,79.70
2019-03-03T07:45:41.713Z,79.30
2019-03-03T07:48:08.465Z,79.30
2019-03-03T07:50:35.017Z,79.20
2019-03-03T07:53:01.757Z,79.00
2019-03-03T07:55:28.334Z,78.80
2019-03-03T07:57:54.872Z,78.70
2019-03-03T08:00:21.660Z,79.00
2019-03-03T08:02:48.107Z,78.80
2019-03-03T08:05:14.520Z,78.90
2019-03-03T08:07:40.934Z,78.70
2019-03-03T08:10:14.266Z,77.70
2019-03-03T08:12:40.791Z,76.20
2019-03-03T08:15:15.626Z,73.90
2019-03-03T08:17:42.361Z,73.20
2019-03-03T08:20:10.471Z,72.90
2019-03-03T08:22:36.875Z,73.20
2019-03-03T08:25:05.852Z,73.20
2019-03-03T08:27:32.617Z,72.60
2019-03-03T08:29:59.449Z,72.80
2019-03-03T08:32:26.289Z,72.30
2019-03-03T08:34:53.149Z,70.90
2019-03-03T08:37:19.877Z,69.30
2019-03-03T08:39:46.381Z,68.90
2019-03-03T08:42:32.917Z,67.90
2019-03-03T08:45:07.614Z,66.10
2019-03-03T08:47:39.211Z,64.80
2019-03-03T08:50:09.432Z,64.20
2019-03-03T08:52:37.848Z,64.70
2019-03-03T08:55:07.189Z,63.00
2019-03-03T08:57:44.902Z,62.00
2019-03-03T09:00:18.246Z,62.50
2019-03-03T09:03:03.795Z,63.70
2019-03-03T09:05:32.377Z,63.40
2019-03-03T09:08:00.575Z,61.20
2019-03-03T09:10:28.770Z,60.00
2019-03-03T09:12:57.014Z,61.00
2019-03-03T09:15:28.216Z,58.80
2019-03-03T09:18:13.314Z,59.00
2019-03-03T09:20:41.895Z,60.20
2019-03-03T09:23:13.040Z,58.80
2019-03-03T09:25:50.535Z,59.80
2019-03-03T09:28:25.266Z,59.20
2019-03-03T09:30:59.364Z,59.00
2019-03-03T09:33:30.632Z,58.80
2019-03-03T09:35:58.847Z,58.20
2019-03-03T09:38:30.259Z,58.20
2019-03-03T09:41:10.716Z,57.30
2019-03-03T09:43:39.029Z,58.30
2019-03-03T09:46:09.952Z,57.20
2019-03-03T09:48:38.533Z,57.60
2019-03-03T09:51:15.663Z,56.60
2019-03-03T09:54:00.907Z,56.00
2019-03-03T09:56:29.102Z,56.00
2019-03-03T09:59:00.322Z,56.00
2019-03-03T10:01:43.836Z,55.50
2019-03-03T10:04:12.323Z,55.20
2019-03-03T10:06:49.590Z,56.30
2019-03-03T10:09:35.201Z,54.70
2019-03-03T10:12:12.370Z,54.40
2019-03-03T10:14:52.847Z,55.00
2019-03-03T10:17:33.611Z,55.40
2019-03-03T10:20:04.852Z,53.90
2019-03-03T10:22:39.280Z,53.80
2019-03-03T10:25:13.255Z,53.50
2019-03-03T10:27:44.749Z,52.70
2019-03-03T10:30:32.266Z,53.70
2019-03-03T10:33:17.058Z,54.30
2019-03-03T10:35:48.182Z,52.30
2019-03-03T10:38:16.975Z,53.50
2019-03-03T10:40:45.763Z,53.60
2019-03-03T10:43:25.911Z,52.90
2019-03-03T10:46:03.737Z,51.70
2019-03-03T10:48:32.510Z,51.50
2019-03-03T10:51:16.150Z,51.20
2019-03-03T10:53:44.393Z,53.00
2019-03-03T10:56:15.667Z,52.70
2019-03-03T10:58:53.063Z,51.20
2019-03-03T11:01:21.265Z,50.60
2019-03-03T11:03:52.473Z,50.10
2019-03-03T11:06:26.437Z,50.00
2019-03-03T11:08:57.738Z,49.20
2019-03-03T11:11:32.570Z,49.10
2019-03-03T11:14:09.777Z,48.50
2019-03-03T11:16:54.961Z,49.50
2019-03-03T11:19:35.593Z,48.90
2019-03-03T11:22:10.325Z,49.20
2019-03-03T11:24:38.568Z,47.80
2019-03-03T11:27:25.419Z,48.00
2019-03-03T11:30:02.529Z,48.40
2019-03-03T11:32:45.794Z,48.40
2019-03-03T11:35:19.726Z,49.10
2019-03-03T11:37:53.715Z,51.00
2019-03-03T11:40:25.003Z,49.10
2019-03-03T11:42:56.347Z,49.00
2019-03-03T11:45:30.872Z,49.60
2019-03-03T11:48:05.393Z,51.90
2019-03-03T11:50:36.298Z,49.80
2019-03-03T11:53:13.826Z,49.20
2019-03-03T11:55:42.414Z,50.10
2019-03-03T11:58:20.116Z,50.80
2019-03-03T12:01:05.182Z,50.80
2019-03-03T12:03:39.504Z,49.50
2019-03-03T12:06:16.999Z,48.60
2019-03-03T12:08:45.245Z,47.60
2019-03-03T12:11:28.491Z,46.90
2019-03-03T12:14:08.964Z,46.40
2019-03-03T12:16:46.553Z,47.00
2019-03-03T12:19:14.802Z,47.00
2019-03-03T12:21:46.069Z,45.70
2019-03-03T12:24:20.411Z,47.50
2019-03-03T12:26:51.997Z,47.40
2019-03-03T12:29:20.253Z,46.30
2019-03-03T12:31:50.719Z,46.80
2019-03-03T12:34:35.222Z,47.30
2019-03-03T12:37:19.819Z,48.10
2019-03-03T12:39:51.212Z,48.40
2019-03-03T12:42:23.001Z,48.00
2019-03-03T12:44:54.238Z,47.80
2019-03-03T12:47:34.429Z,48.10
2019-03-03T12:50:03.094Z,48.90
2019-03-03T12:52:34.639Z,50.30
2019-03-03T12:55:05.708Z,51.20
2019-03-03T12:57:33.906Z,50.60
2019-03-03T13:00:02.538Z,50.60
2019-03-03T13:02:46.058Z,50.60
2019-03-03T13:05:14.157Z,50.80
2019-03-03T13:07:51.554Z,50.00
2019-03-03T13:10:20.117Z,49.80
2019-03-03T13:13:05.193Z,48.70
2019-03-03T13:15:45.958Z,48.40
2019-03-03T13:18:14.546Z,48.70
2019-03-03T13:20:43.148Z,49.20
2019-03-03T13:23:30.256Z,50.10
2019-03-03T13:26:10.352Z,49.60
2019-03-03T13:28:40.845Z,49.90
2019-03-03T13:31:11.766Z,49.00
2019-03-03T13:33:58.591Z,49.20
2019-03-03T13:36:39.149Z,49.50
2019-03-03T13:39:09.394Z,49.30
2019-03-03T13:41:43.798Z,50.60
2019-03-03T13:44:10.645Z,51.60
2019-03-03T13:46:37.523Z,51.90
2019-03-03T13:49:04.235Z,51.50
2019-03-03T13:51:30.638Z,51.30
2019-03-03T13:53:57.292Z,50.60
2019-03-03T13:56:23.944Z,51.00
2019-03-03T13:58:50.253Z,51.50
2019-03-03T14:01:17.115Z,51.00
2019-03-03T14:03:43.849Z,51.60
2019-03-03T14:06:10.603Z,52.00
2019-03-03T14:08:36.993Z,51.20
2019-03-03T14:11:03.775Z,51.10
2019-03-03T14:13:30.180Z,51.10
2019-03-03T14:15:56.604Z,50.60
2019-03-03T14:18:23.147Z,51.00
2019-03-03T14:20:50.015Z,51.90
2019-03-03T14:23:16.553Z,52.70
2019-03-03T14:25:42.911Z,53.20
2019-03-03T14:28:09.628Z,52.90
2019-03-03T14:30:36.070Z,54.10
2019-03-03T14:33:02.802Z,54.50
2019-03-03T14:35:29.444Z,54.40
2019-03-03T14:37:55.847Z,54.90
2019-03-03T14:40:22.619Z,55.10
2019-03-03T14:42:49.384Z,55.40
2019-03-03T14:45:17.505Z,56.20
2019-03-03T14:47:44.177Z,56.50
2019-03-03T14:50:19.827Z,56.90
2019-03-03T14:52:48.871Z,57.30
2019-03-03T14:55:18.421Z,57.70
2019-03-03T14:57:44.842Z,58.00
2019-03-03T15:00:18.259Z,58.40
2019-03-03T15:02:44.595Z,58.50
2019-03-03T15:05:11.221Z,59.70
2019-03-03T15:07:37.843Z,59.10
2019-03-03T15:10:10.448Z,59.30
2019-03-03T15:12:36.955Z,59.40
2019-03-03T15:15:06.630Z,59.50
2019-03-03T15:17:33.448Z,60.00
2019-03-03T15:20:00.031Z,59.90
2019-03-03T15:22:27.012Z,60.50
2019-03-03T15:24:53.993Z,60.60
2019-03-03T15:27:20.947Z,60.70
2019-03-03T15:29:47.366Z,60.60
2019-03-03T15:32:14.090Z,60.90
2019-03-03T15:34:40.401Z,61.40
2019-03-03T15:37:09.198Z,60.60
2019-03-03T15:39:36.045Z,61.30
2019-03-03T15:42:02.600Z,61.50
2019-03-03T15:44:29.322Z,61.80
2019-03-03T15:46:55.936Z,62.60
2019-03-03T15:49:22.354Z,63.30
2019-03-03T15:51:49.143Z,63.60
2019-03-03T15:54:15.826Z,65.00
2019-03-03T15:56:42.830Z,65.00
2019-03-03T15:59:09.675Z,65.10
2019-03-03T16:01:36.616Z,65.30
2019-03-03T16:04:03.174Z,65.40
2019-03-03T16:06:29.857Z,65.40
2019-03-03T16:08:56.286Z,66.30
2019-03-03T16:11:22.721Z,66.20
2019-03-03T16:13:49.170Z,65.90
2019-03-03T16:16:15.842Z,66.40
2019-03-03T16:18:42.679Z,66.60
2019-03-03T16:21:09.210Z,66.80
2019-03-03T16:23:35.756Z,67.10
2019-03-03T16:26:02.367Z,67.30
2019-03-03T16:28:29.055Z,67.90
2019-03-03T16:30:55.891Z,67.70
2019-03-03T16:33:22.825Z,67.90
2019-03-03T16:35:49.342Z,67.70
2019-03-03T16:38:15.759Z,68.50
2019-03-03T16:40:42.438Z,68.40
2019-03-03T16:43:09.283Z,68.40
2019-03-03T16:45:35.858Z,68.80
2019-03-03T16:50:34.987Z,69.20
2019-03-03T16:53:01.877Z,68.70
2019-03-03T16:55:30.664Z,68.60
2019-03-03T16:57:57.228Z,68.80
2019-03-03T17:00:24.651Z,69.10
2019-03-03T17:02:51.504Z,69.10
2019-03-03T17:05:25.606Z,68.80
2019-03-03T17:07:52.247Z,69.00
2019-03-03T17:10:19.012Z,69.70
2019-03-03T17:12:45.447Z,69.00
2019-03-03T17:15:17.485Z,69.40
2019-03-03T17:17:44.025Z,69.30
2019-03-03T17:20:10.984Z,69.40
2019-03-03T17:22:37.618Z,69.30
2019-03-03T17:25:07.836Z,69.70
2019-03-03T17:27:34.597Z,69.80
2019-03-03T17:30:01.635Z,69.30
2019-03-03T17:32:28.294Z,70.40
2019-03-03T17:37:27.813Z,69.90
2019-03-03T17:42:26.972Z,70.60
2019-03-03T17:44:53.419Z,70.60
2019-03-03T17:47:20.198Z,70.70
2019-03-03T17:49:46.758Z,70.70
2019-03-03T17:52:13.778Z,71.30
2019-03-03T17:54:40.220Z,71.70
2019-03-03T17:57:10.071Z,71.50
2019-03-03T17:59:36.406Z,71.80
2019-03-03T18:02:03.202Z,71.80
2019-03-03T18:04:29.941Z,72.30
2019-03-03T18:06:56.521Z,72.00
2019-03-03T18:09:23.209Z,72.40
2019-03-03T18:11:49.661Z,72.00
2019-03-03T18:14:16.495Z,73.10
2019-03-03T18:16:43.543Z,72.50
2019-03-03T18:19:09.880Z,72.90
2019-03-03T18:21:36.615Z,72.10
2019-03-03T18:24:04.174Z,73.20
2019-03-03T18:29:03.907Z,73.60
2019-03-03T18:31:30.293Z,72.80
2019-03-03T18:33:56.606Z,73.10
2019-03-03T18:36:23.225Z,73.70
2019-03-03T18:38:49.575Z,73.10
2019-03-03T18:41:16.165Z,73.80
2019-03-03T18:43:42.925Z,74.30
2019-03-03T18:46:09.862Z,73.10
2019-03-03T18:48:36.610Z,73.40
2019-03-03T18:51:03.347Z,73.00
2019-03-03T18:53:30.086Z,75.80
2019-03-03T18:55:56.698Z,75.40
2019-03-03T18:58:23.093Z,75.10
2019-03-03T19:00:49.911Z,74.00
2019-03-03T19:03:16.352Z,74.90
2019-03-03T19:05:42.891Z,75.50
2019-03-03T19:08:09.299Z,74.90
2019-03-03T19:10:40.507Z,74.60
2019-03-03T19:13:07.293Z,74.40
2019-03-03T19:15:33.848Z,75.30
2019-03-03T19:18:00.403Z,74.40
2019-03-03T19:20:26.969Z,74.80
2019-03-03T19:22:54.068Z,75.00
2019-03-03T19:25:20.996Z,75.90
2019-03-03T19:27:47.414Z,74.90
2019-03-03T19:30:19.301Z,76.10
2019-03-03T19:32:49.421Z,76.40
2019-03-03T19:35:15.853Z,76.20
2019-03-03T19:37:42.598Z,76.10
2019-03-03T19:40:11.274Z,77.40
2019-03-03T19:42:37.561Z,76.50
2019-03-03T19:45:07.810Z,76.40
2019-03-03T19:47:34.254Z,77.10
2019-03-03T19:50:00.648Z,76.00
2019-03-03T19:52:27.448Z,77.40
2019-03-03T19:54:53.750Z,78.40
2019-03-03T19:57:20.731Z,78.10
2019-03-03T19:59:47.171Z,78.70
2019-03-03T20:02:13.583Z,78.60
2019-03-03T20:04:40.009Z,78.80
2019-03-03T20:07:07.074Z,78.80
2019-03-03T20:09:33.483Z,79.20
2019-03-03T20:11:59.889Z,79.60
2019-03-03T20:14:26.334Z,79.70
2019-03-03T20:16:53.113Z,80.00
2019-03-03T20:19:19.870Z,80.10
2019-03-03T20:21:46.211Z,80.30
2019-03-03T20:24:12.929Z,80.50
2019-03-03T20:26:40.698Z,80.50
2019-03-03T20:29:07.437Z,79.90
2019-03-03T20:31:34.288Z,80.30
2019-03-03T20:34:01.123Z,79.50
2019-03-03T20:36:27.743Z,80.40
2019-03-03T20:38:54.503Z,79.70
2019-03-03T20:41:20.950Z,78.70
2019-03-03T20:43:47.357Z,81.00
2019-03-03T20:46:14.223Z,81.10
2019-03-03T20:48:40.660Z,81.40
2019-03-03T20:51:07.394Z,78.60
2019-03-03T20:53:33.907Z,80.30
2019-03-03T20:56:20.433Z,80.90
2019-03-03T20:58:46.845Z,81.40
2019-03-03T21:01:13.505Z,81.50
2019-03-03T21:03:39.953Z,81.30
2019-03-03T21:06:06.783Z,81.30
2019-03-03T21:08:33.595Z,81.00
2019-03-03T21:10:59.936Z,79.60
2019-03-03T21:13:26.811Z,80.80
2019-03-03T21:15:53.556Z,81.10
2019-03-03T21:18:19.850Z,81.40
2019-03-03T21:20:46.159Z,81.70
2019-03-03T21:23:12.628Z,81.80
2019-03-03T21:25:39.395Z,81.50
2019-03-03T21:28:06.133Z,81.70
2019-03-03T21:30:32.866Z,81.70
2019-03-03T21:32:59.712Z,82.00
2019-03-03T21:35:26.412Z,81.80
2019-03-03T21:37:53.206Z,81.90
2019-03-03T21:40:21.104Z,81.70
2019-03-03T21:42:48.009Z,82.00
2019-03-03T21:45:17.519Z,80.00
2019-03-03T21:47:43.925Z,82.10
2019-03-03T21:50:13.655Z,79.90
2019-03-03T21:52:39.959Z,81.30
2019-03-03T21:55:08.667Z,81.50
2019-03-03T21:57:35.317Z,79.70
2019-03-03T22:00:02.268Z,79.20
2019-03-03T22:05:03.795Z,81.40
2019-03-03T22:07:30.648Z,80.80
2019-03-03T22:09:57.523Z,80.90
2019-03-03T22:12:24.470Z,81.40
2019-03-03T22:14:51.094Z,81.40
2019-03-03T22:17:17.727Z,81.00
2019-03-03T22:19:44.595Z,79.30
2019-03-03T22:22:11.533Z,82.40
2019-03-03T22:24:40.326Z,83.20
2019-03-03T22:27:07.587Z,83.20
2019-03-03T22:29:35.190Z,83.40
2019-03-03T22:32:01.861Z,83.60
2019-03-03T22:34:28.422Z,84.40
2019-03-03T22:36:55.569Z,84.00
2019-03-03T22:39:22.206Z,84.30
2019-03-03T22:41:49.159Z,84.50
2019-03-03T22:44:15.756Z,84.50
2019-03-03T22:46:43.050Z,85.00
2019-03-03T22:49:09.698Z,85.40
2019-03-03T22:51:36.635Z,85.30
2019-03-03T22:54:03.300Z,85.30
2019-03-03T22:56:30.017Z,85.70
2019-03-03T22:58:56.958Z,85.90
2019-03-03T23:01:24.208Z,85.40
2019-03-03T23:04:03.959Z,85.60
2019-03-03T23:06:49.251Z,84.70
2019-03-03T23:09:28.445Z,84.70
2019-03-03T23:12:19.431Z,85.30
2019-03-03T23:15:17.563Z,85.00
2019-03-03T23:18:03.349Z,86.00
2019-03-03T23:20:48.881Z,86.70
2019-03-03T23:23:31.151Z,86.80
2019-03-03T23:25:57.659Z,85.40
2019-03-03T23:28:24.159Z,86.40
2019-03-03T23:30:51.159Z,87.20
2019-03-03T23:33:18.221Z,87.00
2019-03-03T23:35:45.124Z,87.70
2019-03-03T23:38:11.814Z,87.40
2019-03-03T23:40:38.886Z,87.30
2019-03-03T23:43:06.089Z,86.80
2019-03-03T23:45:32.797Z,85.80
2019-03-03T23:48:00.258Z,84.20
2019-03-03T23:50:26.868Z,84.70
2019-03-03T23:52:54.347Z,85.30
2019-03-03T23:55:21.004Z,85.60
2019-03-03T23:57:47.962Z,84.70
